createdAt,value
2022-10-11T00:02:20.974Z,9.82
2022-10-11T00:04:50.578Z,11.25
2022-10-11T00:07:25.195Z,8.38
2022-10-11T00:09:54.379Z,6.18
2022-10-11T00:12:23.905Z,3.47
2022-10-11T00:14:55.044Z,4.57
2022-10-11T00:17:24.278Z,5.22
2022-10-11T00:19:53.374Z,6.45
2022-10-11T00:22:27.539Z,5.97
2022-10-11T00:24:58.298Z,4.65
2022-10-11T00:27:27.634Z,5.28
2022-10-11T00:29:58.879Z,4.30
2022-10-11T00:32:33.147Z,7.13
2022-10-11T00:35:05.881Z,6.70
2022-10-11T00:37:36.270Z,5.93
2022-10-11T00:40:08.497Z,7.85
2022-10-11T00:42:37.916Z,7.90
2022-10-11T00:45:36.761Z,6.10
2022-10-11T00:51:04.174Z,5.18
2022-10-11T00:53:34.869Z,5.90
2022-10-11T00:56:09.080Z,5.80
2022-10-11T00:58:45.761Z,5.35
2022-10-11T01:01:14.902Z,3.95
2022-10-11T01:03:52.147Z,5.65
2022-10-11T01:06:26.823Z,3.72
2022-10-11T01:09:01.340Z,5.90
2022-10-11T01:11:32.954Z,4.55
2022-10-11T01:14:28.937Z,5.90
2022-10-11T01:17:05.586Z,4.05
2022-10-11T01:20:02.727Z,2.67
2022-10-11T01:22:55.094Z,5.75
2022-10-11T01:25:48.521Z,3.50
2022-10-11T01:28:28.328Z,5.63
2022-10-11T01:31:06.506Z,3.45
2022-10-11T01:33:43.247Z,3.22
2022-10-11T01:36:27.203Z,5.03
2022-10-11T01:39:01.411Z,5.95
2022-10-11T01:41:36.703Z,4.00
2022-10-11T01:44:14.898Z,5.63
2022-10-11T01:49:16.034Z,4.35
2022-10-11T01:51:48.004Z,3.88
2022-10-11T01:54:56.964Z,5.28
2022-10-11T01:58:01.074Z,6.22
2022-10-11T02:00:39.450Z,6.80
2022-10-11T02:03:22.317Z,4.70
2022-10-11T02:05:59.557Z,5.95
2022-10-11T02:08:39.336Z,4.22
2022-10-11T02:11:14.929Z,6.13
2022-10-11T02:13:49.376Z,10.45
2022-10-11T02:16:25.941Z,6.28
2022-10-11T02:19:06.881Z,5.70
2022-10-11T02:21:39.520Z,5.97
2022-10-11T02:24:20.373Z,5.90
2022-10-11T02:26:53.767Z,8.13
2022-10-11T02:32:01.783Z,5.20
2022-10-11T02:34:47.246Z,3.97
2022-10-11T02:37:24.540Z,3.63
2022-10-11T02:39:57.835Z,3.17
2022-10-11T02:42:30.535Z,6.70
2022-10-11T02:45:10.122Z,4.22
2022-10-11T02:47:41.377Z,6.18
2022-10-11T02:50:13.116Z,4.90
2022-10-11T02:52:48.146Z,4.30
2022-10-11T02:55:17.580Z,4.93
2022-10-11T02:57:47.260Z,6.28
2022-10-11T03:00:17.328Z,8.02
2022-10-11T03:02:46.298Z,6.50
2022-10-11T03:05:17.616Z,4.85
2022-10-11T03:07:51.781Z,7.15
2022-10-11T03:10:21.107Z,9.13
2022-10-11T03:12:50.310Z,8.65
2022-10-11T03:15:24.480Z,5.85
2022-10-11T03:17:53.575Z,7.40
2022-10-11T03:20:25.013Z,6.95
2022-10-11T03:22:54.092Z,6.18
2022-10-11T03:25:25.026Z,4.70
2022-10-11T03:27:54.216Z,5.55
2022-10-11T03:30:23.353Z,4.80
2022-10-11T03:32:52.761Z,9.48
2022-10-11T03:35:29.074Z,4.95
2022-10-11T03:40:38.388Z,8.25
2022-10-11T03:43:07.446Z,4.03
2022-10-11T03:45:41.852Z,3.92
2022-10-11T03:48:11.679Z,5.70
2022-10-11T03:50:42.880Z,5.75
2022-10-11T03:53:12.137Z,6.68
2022-10-11T03:55:41.799Z,5.25
2022-10-11T03:58:16.034Z,3.88
2022-10-11T04:00:45.102Z,11.43
2022-10-11T04:03:19.324Z,8.00
2022-10-11T04:05:51.148Z,7.32
2022-10-11T04:08:32.321Z,5.72
2022-10-11T04:11:01.475Z,7.82
2022-10-11T04:13:31.032Z,6.43
2022-10-11T04:16:00.134Z,7.03
2022-10-11T04:18:32.989Z,12.55
2022-10-11T04:21:04.233Z,5.43
2022-10-11T04:23:38.474Z,6.20
2022-10-11T04:26:14.078Z,5.88
2022-10-11T04:28:43.266Z,5.07
2022-10-11T04:31:12.534Z,6.95
2022-10-11T04:33:41.739Z,3.35
2022-10-11T04:36:12.710Z,6.05
2022-10-11T04:38:41.978Z,7.13
2022-10-11T04:41:12.655Z,7.03
2022-10-11T04:43:42.105Z,10.27
2022-10-11T04:46:11.847Z,8.10
2022-10-11T04:48:41.043Z,5.82
2022-10-11T04:51:10.070Z,5.72
2022-10-11T04:53:46.228Z,6.68
2022-10-11T04:56:17.310Z,6.07
2022-10-11T04:58:47.694Z,4.80
2022-10-11T05:01:17.520Z,5.35
2022-10-11T05:03:46.822Z,5.03
2022-10-11T05:06:15.910Z,6.05
2022-10-11T05:08:46.878Z,6.13
2022-10-11T05:11:18.391Z,5.93
2022-10-11T05:13:48.234Z,5.20
2022-10-11T05:16:18.219Z,7.32
2022-10-11T05:18:47.372Z,6.90
2022-10-11T05:21:19.620Z,6.05
2022-10-11T05:24:00.922Z,6.43
2022-10-11T05:26:30.424Z,5.57
2022-10-11T05:29:04.737Z,8.80
2022-10-11T05:31:34.272Z,6.32
2022-10-11T05:34:08.442Z,6.63
2022-10-11T05:36:37.643Z,8.45
2022-10-11T05:39:08.711Z,8.85
2022-10-11T05:41:37.839Z,10.13
2022-10-11T05:44:09.112Z,9.50
2022-10-11T05:46:43.220Z,13.20
2022-10-11T05:49:17.300Z,7.88
2022-10-11T05:51:46.676Z,7.47
2022-10-11T05:54:25.319Z,7.35
2022-10-11T05:56:56.391Z,10.35
2022-10-11T05:59:25.535Z,8.32
2022-10-11T06:01:54.685Z,8.35
2022-10-11T06:04:23.863Z,9.80
2022-10-11T06:06:52.853Z,8.82
2022-10-11T06:09:23.941Z,13.73
2022-10-11T06:11:53.322Z,7.85
2022-10-11T06:14:27.711Z,8.75
2022-10-11T06:16:56.956Z,8.57
2022-10-11T06:19:26.194Z,7.75
2022-10-11T06:21:55.242Z,8.40
2022-10-11T06:24:31.457Z,8.88
2022-10-11T06:27:00.665Z,7.15
2022-10-11T06:29:29.698Z,7.28
2022-10-11T06:32:05.211Z,6.13
2022-10-11T06:34:34.314Z,9.15
2022-10-11T06:37:03.273Z,8.95
2022-10-11T06:39:39.295Z,12.68
2022-10-11T06:42:08.746Z,12.02
2022-10-11T06:44:37.756Z,7.70
2022-10-11T06:47:13.424Z,10.25
2022-10-11T06:49:42.899Z,11.07
2022-10-11T06:52:12.048Z,13.55
2022-10-11T06:54:45.097Z,8.70
2022-10-11T06:57:14.806Z,10.10
2022-10-11T06:59:49.803Z,8.90
2022-10-11T07:02:19.115Z,11.48
2022-10-11T07:04:48.233Z,6.63
2022-10-11T07:07:17.481Z,9.13
2022-10-11T07:09:53.830Z,5.10
2022-10-11T07:15:03.364Z,6.10
2022-10-11T07:17:32.357Z,3.75
2022-10-11T07:20:04.283Z,5.97
2022-10-11T07:25:04.304Z,4.45
2022-10-11T07:27:38.565Z,5.78
2022-10-11T07:30:09.289Z,6.97
2022-10-11T07:32:38.516Z,9.85
2022-10-11T07:35:08.604Z,4.03
2022-10-11T07:37:37.769Z,4.28
2022-10-11T07:40:11.162Z,4.15
2022-10-11T07:42:40.331Z,4.53
2022-10-11T07:45:10.110Z,1.92
2022-10-11T07:47:39.295Z,5.10
2022-10-11T07:50:09.914Z,6.00
2022-10-11T07:52:45.214Z,4.80
2022-10-11T07:55:16.377Z,5.78
2022-10-11T07:57:50.399Z,5.68
2022-10-11T08:00:20.222Z,2.60
2022-10-11T08:02:49.339Z,7.45
2022-10-11T08:05:18.936Z,2.38
2022-10-11T08:07:48.346Z,4.25
2022-10-11T08:10:19.962Z,7.03
2022-10-11T08:12:49.314Z,6.20
2022-10-11T08:15:25.142Z,5.70
2022-10-11T08:17:54.331Z,2.10
2022-10-11T08:20:23.683Z,4.72
2022-10-11T08:22:52.759Z,1.75
2022-10-11T08:25:24.368Z,1.58
2022-10-11T08:27:53.576Z,2.55
2022-10-11T08:30:22.772Z,4.95
2022-10-11T08:32:52.011Z,4.00
2022-10-11T08:35:21.111Z,7.32
2022-10-11T08:37:50.254Z,2.70
2022-10-11T08:40:23.988Z,4.40
2022-10-11T08:43:01.112Z,5.00
2022-10-11T08:45:34.710Z,2.97
2022-10-11T08:48:15.147Z,4.47
2022-10-11T08:51:01.741Z,3.03
2022-10-11T08:53:45.563Z,6.93
2022-10-11T08:56:16.993Z,2.42
2022-10-11T08:58:56.158Z,2.95
2022-10-11T09:01:28.029Z,4.05
2022-10-11T09:06:49.114Z,3.78
2022-10-11T09:09:42.740Z,2.87
2022-10-11T09:12:28.246Z,5.22
2022-10-11T09:15:17.778Z,1.70
2022-10-11T09:18:09.228Z,2.55
2022-10-11T09:20:54.589Z,3.80
2022-10-11T09:23:41.300Z,1.88
2022-10-11T09:26:16.676Z,2.60
2022-10-11T09:29:03.648Z,1.38
2022-10-11T09:31:35.825Z,4.05
2022-10-11T09:36:46.283Z,1.65
2022-10-11T09:39:37.283Z,3.70
2022-10-11T09:42:08.754Z,1.50
2022-10-11T09:44:49.805Z,2.45
2022-10-11T09:47:23.709Z,2.38
2022-10-11T09:49:56.184Z,3.50
2022-10-11T09:52:27.340Z,1.60
2022-10-11T09:54:58.749Z,2.72
2022-10-11T09:57:29.935Z,2.72
2022-10-11T10:00:07.522Z,4.40
2022-10-11T10:02:53.941Z,2.25
2022-10-11T10:05:25.300Z,2.10
2022-10-11T10:08:05.372Z,1.42
2022-10-11T10:10:41.121Z,2.28
2022-10-11T10:13:22.509Z,3.53
2022-10-11T10:15:53.738Z,1.67
2022-10-11T10:18:35.102Z,3.58
2022-10-11T10:21:05.603Z,1.67
2022-10-11T10:23:37.214Z,5.40
2022-10-11T10:28:59.020Z,1.88
2022-10-11T10:32:01.918Z,2.63
2022-10-11T10:34:40.891Z,2.72
2022-10-11T10:37:21.962Z,1.77
2022-10-11T10:39:56.917Z,2.03
2022-10-11T10:42:26.357Z,2.30
2022-10-11T10:44:59.092Z,2.97
2022-10-11T10:48:07.084Z,2.53
2022-10-11T10:50:49.645Z,2.60
2022-10-11T10:53:30.707Z,2.05
2022-10-11T10:56:06.231Z,1.63
2022-10-11T10:58:48.107Z,2.13
2022-10-11T11:01:22.929Z,2.83
2022-10-11T11:04:03.795Z,2.35
2022-10-11T11:06:41.595Z,2.58
2022-10-11T11:09:21.878Z,2.95
2022-10-11T11:12:02.654Z,1.75
2022-10-11T11:14:46.378Z,1.77
2022-10-11T11:17:27.620Z,4.15
2022-10-11T11:20:11.051Z,2.60
2022-10-11T11:22:52.047Z,1.75
2022-10-11T11:25:33.006Z,2.83
2022-10-11T11:28:16.484Z,2.13
2022-10-11T11:30:54.322Z,3.80
2022-10-11T11:33:40.109Z,4.55
2022-10-11T11:36:15.513Z,2.70
2022-10-11T11:38:50.258Z,5.25
2022-10-11T11:41:24.802Z,1.40
2022-10-11T11:44:00.799Z,2.10
2022-10-11T11:46:33.676Z,3.15
2022-10-11T11:49:12.759Z,0.90
2022-10-11T11:54:43.158Z,3.33
2022-10-11T11:57:31.604Z,3.30
2022-10-11T12:00:07.535Z,1.92
2022-10-11T12:02:48.328Z,1.55
2022-10-11T12:05:20.373Z,3.10
2022-10-11T12:07:57.710Z,4.72
2022-10-11T12:10:41.397Z,2.88
2022-10-11T12:13:27.250Z,3.45
2022-10-11T12:16:09.866Z,2.35
2022-10-11T12:18:51.703Z,1.90
2022-10-11T12:21:31.549Z,2.55
2022-10-11T12:24:18.927Z,2.17
2022-10-11T12:26:57.579Z,2.75
2022-10-11T12:29:50.057Z,1.73
2022-10-11T12:32:49.632Z,2.70
2022-10-11T12:35:57.301Z,2.45
2022-10-11T12:38:28.923Z,2.15
2022-10-11T12:41:00.215Z,2.97
2022-10-11T12:43:35.742Z,2.35
2022-10-11T12:46:35.411Z,2.67
2022-10-11T12:56:28.539Z,3.22
2022-10-11T12:59:05.794Z,4.67
2022-10-11T13:01:38.391Z,3.05
2022-10-11T13:04:11.657Z,3.40
2022-10-11T13:06:50.564Z,6.60
2022-10-11T13:09:30.459Z,2.22
2022-10-11T13:12:06.834Z,2.75
2022-10-11T13:14:39.997Z,3.83
2022-10-11T13:17:17.881Z,4.40
2022-10-11T13:19:47.178Z,4.30
2022-10-11T13:22:20.465Z,1.83
2022-10-11T13:24:49.641Z,3.28
2022-10-11T13:27:23.294Z,3.60
2022-10-11T13:30:01.771Z,4.05
2022-10-11T13:32:35.777Z,4.60
2022-10-11T13:35:09.584Z,4.43
2022-10-11T13:37:45.974Z,5.57
2022-10-11T13:40:16.948Z,5.65
2022-10-11T13:42:49.853Z,7.20
2022-10-11T13:45:24.905Z,6.60
2022-10-11T13:47:56.033Z,3.45
2022-10-11T13:50:33.958Z,4.60
2022-10-11T13:53:04.944Z,3.25
2022-10-11T13:55:45.967Z,4.10
2022-10-11T13:58:22.130Z,8.10
2022-10-11T14:00:58.093Z,9.63
2022-10-11T14:03:39.321Z,6.15
2022-10-11T14:06:09.245Z,4.80
2022-10-11T14:08:41.293Z,7.32
2022-10-11T14:13:43.343Z,6.88
2022-10-11T14:16:14.762Z,6.28
2022-10-11T14:18:47.910Z,6.28
2022-10-11T14:21:28.133Z,5.07
2022-10-11T14:23:58.613Z,4.25
2022-10-11T14:26:28.907Z,2.97
2022-10-11T14:29:09.969Z,4.13
2022-10-11T14:31:41.934Z,5.82
2022-10-11T14:34:20.635Z,3.88
2022-10-11T14:36:51.012Z,4.18
2022-10-11T14:39:28.151Z,5.50
2022-10-11T14:41:57.387Z,5.65
2022-10-11T14:44:35.256Z,3.97
2022-10-11T14:47:06.216Z,3.13
2022-10-11T14:49:40.831Z,4.10
2022-10-11T14:52:13.112Z,6.78
2022-10-11T14:54:42.733Z,5.28
2022-10-11T14:57:14.086Z,7.72
2022-10-11T14:59:47.501Z,4.13
2022-10-11T15:02:16.633Z,8.02
2022-10-11T15:04:47.282Z,6.65
2022-10-11T15:07:23.345Z,6.07
2022-10-11T15:09:52.500Z,6.20
2022-10-11T15:12:21.520Z,6.60
2022-10-11T15:14:52.509Z,4.97
2022-10-11T15:17:21.638Z,6.72
2022-10-11T15:19:50.689Z,6.43
2022-10-11T15:22:19.829Z,10.68
2022-10-11T15:24:55.379Z,6.13
2022-10-11T15:27:28.175Z,7.35
2022-10-11T15:30:00.949Z,4.10
2022-10-11T15:32:31.543Z,6.40
2022-10-11T15:35:09.508Z,5.63
2022-10-11T15:37:39.133Z,6.40
2022-10-11T15:40:18.225Z,6.47
2022-10-11T15:42:47.802Z,6.30
2022-10-11T15:45:31.701Z,4.63
2022-10-11T15:48:01.546Z,9.10
2022-10-11T15:50:36.926Z,11.38
2022-10-11T15:53:07.896Z,9.57
2022-10-11T15:55:39.706Z,7.05
2022-10-11T16:00:40.055Z,5.63
2022-10-11T16:03:09.796Z,8.35
2022-10-11T16:05:43.407Z,5.93
2022-10-11T16:08:17.717Z,6.38
2022-10-11T16:10:47.059Z,4.20
2022-10-11T16:13:16.423Z,4.72
2022-10-11T16:15:52.662Z,11.98
2022-10-11T16:18:22.896Z,5.18
2022-10-11T16:21:00.344Z,9.43
2022-10-11T16:23:34.513Z,6.15
2022-10-11T16:26:06.391Z,12.40
2022-10-11T16:28:35.991Z,8.70
2022-10-11T16:31:12.004Z,12.27
2022-10-11T16:33:44.978Z,14.02
2022-10-11T16:36:40.853Z,10.45
2022-10-11T16:39:13.702Z,9.50
2022-10-11T16:41:48.391Z,8.38
2022-10-11T16:44:24.739Z,11.70
2022-10-11T16:46:56.875Z,8.55
2022-10-11T16:49:32.472Z,10.40
2022-10-11T16:52:03.390Z,11.73
2022-10-11T16:54:32.612Z,8.30
2022-10-11T16:57:02.000Z,13.48
2022-10-11T17:02:09.413Z,9.38
2022-10-11T17:04:38.861Z,9.73
2022-10-11T17:07:14.036Z,9.75
2022-10-11T17:09:46.119Z,11.95
2022-10-11T17:12:17.292Z,10.10
2022-10-11T17:14:46.929Z,13.60
2022-10-11T17:17:18.478Z,9.77
2022-10-11T17:19:48.933Z,8.48
2022-10-11T17:22:20.490Z,11.30
2022-10-11T17:24:52.395Z,9.02
2022-10-11T17:27:26.811Z,9.30
2022-10-11T17:29:56.103Z,9.35
2022-10-11T17:32:32.838Z,12.05
2022-10-11T17:35:06.281Z,10.52
2022-10-11T17:37:36.397Z,8.77
2022-10-11T17:40:06.146Z,15.05
2022-10-11T17:42:35.281Z,10.77
2022-10-11T17:45:04.442Z,16.48
2022-10-11T17:47:36.178Z,9.00
2022-10-11T17:52:34.389Z,11.27
2022-10-11T17:55:06.510Z,11.27
2022-10-11T17:57:35.967Z,11.52
2022-10-11T18:00:05.990Z,11.43
2022-10-11T18:02:42.761Z,16.42
2022-10-11T18:05:14.364Z,10.73
2022-10-11T18:07:45.731Z,11.35
2022-10-11T18:10:20.420Z,13.63
2022-10-11T18:12:49.796Z,19.08
2022-10-11T18:15:19.258Z,16.95
2022-10-11T18:17:50.568Z,15.13
2022-10-11T18:20:20.279Z,12.98
2022-10-11T18:22:49.346Z,14.07
2022-10-11T18:25:18.770Z,9.73
2022-10-11T18:27:48.338Z,12.05
2022-10-11T18:30:17.999Z,9.95
2022-10-11T18:32:47.148Z,11.27
2022-10-11T18:35:19.821Z,11.30
2022-10-11T18:38:00.045Z,12.40
2022-10-11T18:40:30.113Z,11.10
2022-10-11T18:42:59.458Z,8.88
2022-10-11T18:45:28.786Z,12.82
2022-10-11T18:47:59.276Z,12.43
2022-10-11T18:50:35.307Z,29.25
2022-10-11T18:56:00.329Z,14.57
2022-10-11T18:58:36.924Z,14.60
2022-10-11T19:01:07.423Z,13.55
2022-10-11T19:03:37.239Z,15.20
2022-10-11T19:06:18.974Z,12.63
2022-10-11T19:08:49.746Z,11.55
2022-10-11T19:11:21.762Z,14.00
2022-10-11T19:13:56.515Z,16.95
2022-10-11T19:16:29.161Z,10.77
2022-10-11T19:18:58.695Z,15.93
2022-10-11T19:21:30.132Z,12.50
2022-10-11T19:24:05.058Z,13.77
2022-10-11T19:26:36.720Z,12.80
2022-10-11T19:29:08.261Z,12.07
2022-10-11T19:31:42.149Z,15.52
2022-10-11T19:34:12.073Z,13.27
2022-10-11T19:36:44.038Z,12.45
2022-10-11T19:39:18.366Z,15.20
2022-10-11T19:41:48.489Z,14.65
2022-10-11T19:44:18.421Z,14.73
2022-10-11T19:46:52.319Z,13.38
2022-10-11T19:49:29.490Z,12.45
2022-10-11T19:52:00.879Z,11.88
2022-10-11T19:54:37.018Z,15.25
2022-10-11T19:57:08.278Z,15.27
2022-10-11T19:59:37.690Z,15.65
2022-10-11T20:02:06.866Z,15.15
2022-10-11T20:04:51.931Z,16.33
2022-10-11T20:07:24.225Z,14.88
2022-10-11T20:09:53.809Z,15.02
2022-10-11T20:12:22.766Z,19.23
2022-10-11T20:14:52.027Z,19.60
2022-10-11T20:19:56.331Z,20.30
2022-10-11T20:22:27.528Z,15.35
2022-10-11T20:24:56.870Z,17.17
2022-10-11T20:27:26.203Z,16.25
2022-10-11T20:30:00.481Z,15.60
2022-10-11T20:32:30.628Z,19.58
2022-10-11T20:34:59.794Z,14.95
2022-10-11T20:37:37.229Z,16.67
2022-10-11T20:40:08.033Z,17.15
2022-10-11T20:42:42.306Z,19.65
2022-10-11T20:45:12.506Z,16.92
2022-10-11T20:47:41.571Z,17.23
2022-10-11T20:50:11.363Z,16.73
2022-10-11T20:52:42.417Z,13.43
2022-10-11T20:55:18.454Z,17.17
2022-10-11T20:57:52.668Z,16.58
2022-10-11T21:00:22.701Z,14.50
2022-10-11T21:02:52.207Z,14.70
2022-10-11T21:05:21.304Z,16.58
2022-10-11T21:07:52.999Z,15.73
2022-10-11T21:10:22.360Z,17.02
2022-10-11T21:12:51.423Z,18.40
2022-10-11T21:15:21.009Z,17.48
2022-10-11T21:17:50.152Z,19.33
2022-10-11T21:20:19.551Z,16.08
2022-10-11T21:22:56.154Z,18.05
2022-10-11T21:25:29.168Z,19.33
2022-10-11T21:27:58.945Z,12.63
2022-10-11T21:30:29.221Z,21.33
2022-10-11T21:32:58.518Z,18.05
2022-10-11T21:35:28.793Z,15.43
2022-10-11T21:38:05.048Z,16.65
2022-10-11T21:40:34.871Z,17.25
2022-10-11T21:43:04.230Z,15.00
2022-10-11T21:45:33.525Z,16.75
2022-10-11T21:50:42.446Z,15.52
2022-10-11T21:53:13.438Z,13.35
2022-10-11T21:55:42.649Z,14.02
2022-10-11T21:58:11.692Z,17.00
2022-10-11T22:00:41.414Z,14.68
2022-10-11T22:03:10.926Z,17.65
2022-10-11T22:05:46.461Z,18.80
2022-10-11T22:08:18.113Z,20.23
2022-10-11T22:10:54.300Z,18.88
2022-10-11T22:13:23.621Z,14.85
2022-10-11T22:15:53.156Z,14.82
2022-10-11T22:18:24.040Z,12.73
2022-10-11T22:20:53.551Z,10.85
2022-10-11T22:23:24.639Z,12.52
2022-10-11T22:25:53.760Z,11.73
2022-10-11T22:28:22.880Z,16.48
2022-10-11T22:30:53.192Z,16.20
2022-10-11T22:33:22.275Z,24.30
2022-10-11T22:36:01.555Z,18.23
2022-10-11T22:38:32.807Z,15.60
2022-10-11T22:41:02.114Z,15.15
2022-10-11T22:43:33.195Z,18.98
2022-10-11T22:46:02.775Z,20.50
2022-10-11T22:48:32.075Z,15.60
2022-10-11T22:51:02.039Z,19.70
2022-10-11T22:53:33.391Z,16.38
2022-10-11T22:56:02.532Z,13.57
2022-10-11T22:58:31.712Z,19.30
2022-10-11T23:01:08.500Z,14.27
2022-10-11T23:03:39.321Z,12.85
2022-10-11T23:06:08.883Z,14.75
2022-10-11T23:08:39.918Z,13.05
2022-10-11T23:11:09.521Z,12.48
2022-10-11T23:13:38.746Z,17.65
2022-10-11T23:16:09.270Z,15.73
2022-10-11T23:18:40.788Z,14.15
2022-10-11T23:21:15.713Z,15.20
2022-10-11T23:23:46.919Z,15.65
2022-10-11T23:26:21.185Z,12.80
2022-10-11T23:28:50.329Z,16.95
2022-10-11T23:31:20.115Z,15.85
2022-10-11T23:33:55.723Z,19.13
2022-10-11T23:36:26.780Z,14.70
2022-10-11T23:38:59.713Z,15.32
2022-10-11T23:41:30.894Z,17.13
2022-10-11T23:44:07.419Z,16.25
2022-10-11T23:46:37.047Z,14.27
2022-10-11T23:49:06.567Z,13.85
2022-10-11T23:51:35.868Z,20.35
2022-10-11T23:54:11.988Z,18.75
2022-10-11T23:56:41.532Z,18.67
2022-10-11T23:59:11.783Z,23.30
